Time,TemperatureF,DewpointF,PressureIn,WindDirection,WindDirectionDegrees,WindSpeedMPH,WindSpeedGustMPH,Humidity,HourlyPrecipIn,Conditions,Clouds,dailyrainin,SolarRadiationWatts/m^2,SoftwareType,DateUTC
2013-04-29 00:00:00,53.0,50.0,-100.00,WNW,292,1.0,-999.0,89,-99.99,,,-99.99,0.000000,,2013-04-29 04:00:00,
2013-04-29 00:43:00,53.0,50.0,-100.00,WNW,292,1.0,-999.0,89,-99.99,,,-99.99,0.000000,,2013-04-29 04:43:00,
2013-04-29 00:52:00,53.0,50.0,-100.00,WNW,292,1.0,-999.0,89,-99.99,,,-99.99,0.000000,,2013-04-29 04:52:00,
2013-04-29 01:00:00,52.0,49.0,-100.00,WNW,292,1.0,-999.0,90,-99.99,,,-99.99,0.000000,,2013-04-29 05:00:00,
2013-04-29 01:42:00,52.0,49.0,-100.00,WNW,292,1.0,-999.0,90,-99.99,,,-99.99,0.000000,,2013-04-29 05:42:00,
2013-04-29 01:52:00,52.0,49.0,-100.00,WNW,292,1.0,-999.0,90,-99.99,,,-99.99,0.000000,,2013-04-29 05:52:00,
2013-04-29 02:00:00,50.0,48.0,-100.00,SSW,202,1.0,-999.0,91,-99.99,,,-99.99,0.000000,,2013-04-29 06:00:00,
2013-04-29 02:42:00,50.0,48.0,-100.00,SSW,202,1.0,-999.0,91,-99.99,,,-99.99,0.000000,,2013-04-29 06:42:00,
2013-04-29 02:52:00,50.0,48.0,-100.00,SSW,202,1.0,-999.0,91,-99.99,,,-99.99,0.000000,,2013-04-29 06:52:00,
2013-04-29 03:00:00,49.0,47.0,-100.00,WSW,247,1.0,-999.0,91,-99.99,,,-99.99,0.000000,,2013-04-29 07:00:00,
2013-04-29 03:42:00,49.0,47.0,-100.00,WSW,247,1.0,-999.0,91,-99.99,,,-99.99,0.000000,,2013-04-29 07:42:00,
2013-04-29 03:52:00,49.0,47.0,-100.00,WSW,247,1.0,-999.0,91,-99.99,,,-99.99,0.000000,,2013-04-29 07:52:00,
2013-04-29 04:00:00,48.0,46.0,-100.00,West,270,0.0,-999.0,92,-99.99,,,-99.99,0.000000,,2013-04-29 08:00:00,
2013-04-29 04:42:00,48.0,46.0,-100.00,West,270,0.0,-999.0,92,-99.99,,,-99.99,0.000000,,2013-04-29 08:42:00,
2013-04-29 04:52:00,48.0,46.0,-100.00,West,270,0.0,-999.0,92,-99.99,,,-99.99,0.000000,,2013-04-29 08:52:00,
2013-04-29 06:00:00,49.0,47.0,-100.00,South,180,1.0,-999.0,93,-99.99,,,-99.99,0.000000,,2013-04-29 10:00:00,
2013-04-29 06:42:00,49.0,47.0,-100.00,South,180,1.0,-999.0,93,-99.99,,,-99.99,0.000000,,2013-04-29 10:42:00,
2013-04-29 06:52:00,49.0,47.0,-100.00,South,180,1.0,-999.0,93,-99.99,,,-99.99,0.000000,,2013-04-29 10:52:00,
2013-04-29 07:00:00,48.0,46.0,-100.00,SSW,202,2.0,-999.0,93,-99.99,,,-99.99,3.480000,,2013-04-29 11:00:00,
2013-04-29 07:42:00,48.0,46.0,-100.00,SSW,202,2.0,-999.0,93,-99.99,,,-99.99,3.480000,,2013-04-29 11:42:00,
2013-04-29 07:52:00,48.0,46.0,-100.00,SSW,202,2.0,-999.0,93,-99.99,,,-99.99,3.480000,,2013-04-29 11:52:00,
2013-04-29 09:00:00,50.0,48.0,-100.00,WSW,247,3.0,-999.0,93,-99.99,,,-99.99,141.520004,,2013-04-29 13:00:00,
2013-04-29 09:42:00,50.0,48.0,-100.00,WSW,247,3.0,-999.0,93,-99.99,,,-99.99,141.520004,,2013-04-29 13:42:00,
2013-04-29 09:52:00,50.0,48.0,-100.00,WSW,247,3.0,-999.0,93,-99.99,,,-99.99,141.520004,,2013-04-29 13:52:00,
2013-04-29 10:00:00,53.0,51.0,-100.00,West,270,4.0,-999.0,93,-99.99,,,-99.99,322.480011,,2013-04-29 14:00:00,
2013-04-29 10:42:00,53.0,51.0,-100.00,West,270,4.0,-999.0,93,-99.99,,,-99.99,322.480011,,2013-04-29 14:42:00,
2013-04-29 10:52:00,53.0,51.0,-100.00,West,270,4.0,-999.0,93,-99.99,,,-99.99,322.480011,,2013-04-29 14:52:00,
2013-04-29 12:00:00,63.0,52.0,-100.00,West,270,5.0,-999.0,66,-99.99,,,-99.99,647.280029,,2013-04-29 16:00:00,
2013-04-29 12:42:00,63.0,52.0,-100.00,West,270,5.0,-999.0,66,-99.99,,,-99.99,647.280029,,2013-04-29 16:42:00,
2013-04-29 12:52:00,63.0,52.0,-100.00,West,270,5.0,-999.0,66,-99.99,,,-99.99,647.280029,,2013-04-29 16:52:00,
2013-04-29 14:00:00,67.0,49.0,-100.00,SW,225,6.0,-999.0,51,-99.99,,,-99.99,496.480011,,2013-04-29 18:00:00,
2013-04-29 14:42:00,67.0,49.0,-100.00,SW,225,6.0,-999.0,51,-99.99,,,-99.99,496.480011,,2013-04-29 18:42:00,
2013-04-29 14:52:00,67.0,49.0,-100.00,SW,225,6.0,-999.0,51,-99.99,,,-99.99,496.480011,,2013-04-29 18:52:00,
2013-04-29 16:00:00,70.0,48.0,-100.00,SSW,202,8.0,-999.0,44,-99.99,,,-99.99,506.920013,,2013-04-29 20:00:00,
2013-04-29 16:43:00,70.0,48.0,-100.00,SSW,202,8.0,-999.0,44,-99.99,,,-99.99,506.920013,,2013-04-29 20:43:00,
2013-04-29 16:52:00,70.0,48.0,-100.00,SSW,202,8.0,-999.0,44,-99.99,,,-99.99,506.920013,,2013-04-29 20:52:00,
2013-04-29 18:00:00,69.0,48.0,-100.00,SSW,202,9.0,-999.0,46,-99.99,,,-99.99,336.399994,,2013-04-29 22:00:00,
2013-04-29 18:42:00,69.0,48.0,-100.00,SSW,202,9.0,-999.0,46,-99.99,,,-99.99,336.399994,,2013-04-29 22:42:00,
2013-04-29 18:53:00,69.0,48.0,-100.00,SSW,202,9.0,-999.0,46,-99.99,,,-99.99,336.399994,,2013-04-29 22:53:00,
2013-04-29 19:00:00,68.0,48.0,-100.00,South,180,6.0,-999.0,48,-99.99,,,-99.99,160.080002,,2013-04-29 23:00:00,
2013-04-29 19:42:00,68.0,48.0,-100.00,South,180,6.0,-999.0,48,-99.99,,,-99.99,160.080002,,2013-04-29 23:42:00,
2013-04-29 19:53:00,68.0,48.0,-100.00,South,180,6.0,-999.0,48,-99.99,,,-99.99,160.080002,,2013-04-29 23:53:00,